Air Navigation Services of Czech Republic
Airport: LKTB Updated:  13.11.2018 20:31:07  UTC
 METAR LKTB 13.11. 20:30 ...
METAR LKTB 132030Z 17003KT 9999 0600NE R27/0450N BCFG NSC 07/07 Q1028 NOSIG RMK REG QNH 1024=
 TAF LKTB 13.11. 17:00 ...
TAF LKTB 131700Z 1318/1500 28004KT 6000 SCT010 BKN016      TEMPO 1318/1320 3000 BR BKN005 OVC013      BECMG 1320/1322 32006KT CAVOK=